createdAt,value
2022-08-22T00:01:49.131Z,101045.00
2022-08-22T00:02:48.340Z,101019.00
2022-08-22T00:03:01.922Z,101030.40
2022-08-22T00:03:12.645Z,101047.60
2022-08-22T00:04:49.133Z,101052.00
2022-08-22T00:07:35.946Z,101051.80
2022-08-22T00:10:12.899Z,101046.00
2022-08-22T00:13:22.988Z,101045.40
2022-08-22T00:16:22.391Z,101039.40
2022-08-22T00:19:04.186Z,101039.00
2022-08-22T00:22:03.594Z,101036.00
2022-08-22T00:24:48.971Z,101037.80
2022-08-22T00:27:29.433Z,101035.20
2022-08-22T00:30:12.254Z,101040.80
2022-08-22T00:32:53.024Z,101042.60
2022-08-22T00:35:33.591Z,101041.40
2022-08-22T00:38:32.695Z,101041.40
2022-08-22T00:41:07.533Z,101039.60
2022-08-22T00:44:36.519Z,101048.20
2022-08-22T00:47:36.756Z,101046.60
2022-08-22T00:50:53.459Z,101047.20
2022-08-22T00:53:55.735Z,101047.80
2022-08-22T00:56:53.098Z,101051.20
2022-08-22T00:59:41.653Z,101049.80
2022-08-22T01:02:38.185Z,101044.60
2022-08-22T01:05:56.434Z,101044.60
2022-08-22T01:09:02.292Z,101042.60
2022-08-22T01:12:03.338Z,101039.00
2022-08-22T01:14:56.396Z,101037.80
2022-08-22T01:17:59.215Z,101047.20
2022-08-22T01:20:53.777Z,101040.80
2022-08-22T01:24:03.119Z,101048.40
2022-08-22T01:26:59.760Z,101045.20
2022-08-22T01:29:58.655Z,101047.00
2022-08-22T01:33:07.689Z,101049.20
2022-08-22T01:35:45.079Z,101052.20
2022-08-22T01:38:38.444Z,101051.40
2022-08-22T01:41:44.507Z,101052.60
2022-08-22T01:44:54.871Z,101055.80
2022-08-22T01:47:39.738Z,101056.40
2022-08-22T01:50:34.332Z,101059.00
2022-08-22T01:53:25.349Z,101058.40
2022-08-22T01:56:14.305Z,101063.60
2022-08-22T01:59:11.005Z,101061.40
2022-08-22T02:02:02.162Z,101061.80
2022-08-22T02:05:03.310Z,101062.20
2022-08-22T02:08:11.028Z,101061.80
2022-08-22T02:11:06.432Z,101064.20
2022-08-22T02:14:03.581Z,101062.80
2022-08-22T02:16:41.626Z,101063.00
2022-08-22T02:19:16.008Z,101062.40
2022-08-22T02:22:06.505Z,101063.00
2022-08-22T02:24:46.661Z,101063.40
2022-08-22T02:27:39.002Z,101065.40
2022-08-22T02:30:17.523Z,101066.80
2022-08-22T02:33:12.923Z,101068.00
2022-08-22T02:35:58.823Z,101072.20
2022-08-22T02:39:11.235Z,101075.00
2022-08-22T02:41:57.637Z,101069.20
2022-08-22T02:44:41.479Z,101070.20
2022-08-22T02:47:40.462Z,101067.40
2022-08-22T02:50:36.507Z,101063.80
2022-08-22T02:53:40.111Z,101062.40
2022-08-22T02:56:28.476Z,101066.80
2022-08-22T02:59:22.950Z,101064.80
2022-08-22T03:01:52.047Z,101064.60
2022-08-22T03:04:33.132Z,101065.40
2022-08-22T03:07:17.889Z,101060.20
2022-08-22T03:10:00.196Z,101060.40
2022-08-22T03:12:49.260Z,101060.20
2022-08-22T03:15:49.599Z,101056.40
2022-08-22T03:18:21.859Z,101056.80
2022-08-22T03:21:09.797Z,101056.60
2022-08-22T03:23:53.332Z,101059.40
2022-08-22T03:27:02.467Z,101055.00
2022-08-22T03:29:44.571Z,101055.00
2022-08-22T03:32:21.576Z,101058.20
2022-08-22T03:35:10.063Z,101056.40
2022-08-22T03:37:44.494Z,101056.20
2022-08-22T03:40:54.376Z,101056.40
2022-08-22T03:44:19.899Z,101057.40
2022-08-22T03:47:26.062Z,101056.40
2022-08-22T03:50:46.054Z,101059.20
2022-08-22T03:53:20.575Z,101067.20
2022-08-22T03:56:45.401Z,101066.40
2022-08-22T03:59:54.001Z,101062.20
2022-08-22T04:03:05.296Z,101068.40
2022-08-22T04:06:00.086Z,101073.20
2022-08-22T04:08:45.566Z,101073.80
2022-08-22T04:11:49.684Z,101070.00
2022-08-22T04:14:31.177Z,101071.60
2022-08-22T04:17:31.608Z,101070.80
2022-08-22T04:20:33.268Z,101077.00
2022-08-22T04:23:40.425Z,101074.60
2022-08-22T04:26:21.737Z,101078.60
2022-08-22T04:29:03.427Z,101086.20
2022-08-22T04:31:48.191Z,101085.00
2022-08-22T04:34:37.974Z,101085.80
2022-08-22T04:37:51.011Z,101091.40
2022-08-22T04:41:12.837Z,101093.20
2022-08-22T04:44:11.144Z,101104.20
2022-08-22T04:46:47.790Z,101105.20
2022-08-22T04:49:34.498Z,101102.40
2022-08-22T04:52:29.567Z,101105.60
2022-08-22T04:55:30.546Z,101104.00
2022-08-22T04:58:24.321Z,101104.60
2022-08-22T05:01:19.688Z,101103.40
2022-08-22T05:04:09.006Z,101108.00
2022-08-22T05:06:54.032Z,101107.00
2022-08-22T05:09:29.724Z,101113.00
2022-08-22T05:12:09.528Z,101116.00
2022-08-22T05:14:54.951Z,101116.00
2022-08-22T05:17:28.816Z,101117.20
2022-08-22T05:20:03.669Z,101121.20
2022-08-22T05:22:41.089Z,101120.80
2022-08-22T05:25:33.936Z,101123.20
2022-08-22T05:28:25.971Z,101121.60
2022-08-22T05:30:55.944Z,101122.80
2022-08-22T05:33:37.373Z,101126.20
2022-08-22T05:36:14.606Z,101129.40
2022-08-22T05:38:59.751Z,101128.20
2022-08-22T05:41:39.642Z,101130.60
2022-08-22T05:44:20.151Z,101130.00
2022-08-22T05:47:36.860Z,101133.40
2022-08-22T05:50:16.095Z,101131.40
2022-08-22T05:53:17.242Z,101132.20
2022-08-22T05:56:02.211Z,101132.60
2022-08-22T05:58:40.215Z,101130.80
2022-08-22T06:01:52.895Z,101130.40
2022-08-22T06:04:51.536Z,101136.00
2022-08-22T06:07:32.395Z,101140.80
2022-08-22T06:10:14.082Z,101141.00
2022-08-22T06:12:52.404Z,101147.20
2022-08-22T06:15:47.231Z,101146.00
2022-08-22T06:18:23.012Z,101145.00
2022-08-22T06:20:54.827Z,101145.80
2022-08-22T06:23:57.804Z,101146.60
2022-08-22T06:26:36.014Z,101144.60
2022-08-22T06:29:07.642Z,101147.00
2022-08-22T06:31:47.878Z,101145.80
2022-08-22T06:34:26.550Z,101142.80
2022-08-22T06:36:57.885Z,101148.00
2022-08-22T06:39:31.499Z,101144.80
2022-08-22T06:42:17.799Z,101147.80
2022-08-22T06:44:55.234Z,101144.60
2022-08-22T06:47:37.191Z,101146.00
2022-08-22T06:50:15.400Z,101145.60
2022-08-22T06:53:15.830Z,101144.40
2022-08-22T06:55:57.487Z,101147.00
2022-08-22T06:58:42.492Z,101146.20
2022-08-22T07:01:36.031Z,101139.00
2022-08-22T07:04:09.299Z,101146.20
2022-08-22T07:06:47.600Z,101145.00
2022-08-22T07:09:37.763Z,101147.80
2022-08-22T07:12:24.457Z,101141.40
2022-08-22T07:14:59.400Z,101139.80
2022-08-22T07:17:33.166Z,101138.80
2022-08-22T07:20:33.741Z,101141.40
2022-08-22T07:23:13.112Z,101132.40
2022-08-22T07:26:15.440Z,101136.60
2022-08-22T07:29:12.303Z,101137.20
2022-08-22T07:31:50.327Z,101134.40
2022-08-22T07:35:06.409Z,101135.00
2022-08-22T07:37:47.380Z,101136.40
2022-08-22T07:40:39.006Z,101131.40
2022-08-22T07:43:28.276Z,101139.80
2022-08-22T07:46:18.671Z,101133.20
2022-08-22T07:49:08.595Z,101138.20
2022-08-22T07:51:49.937Z,101140.80
2022-08-22T07:54:40.744Z,101134.60
2022-08-22T07:57:36.754Z,101133.40
2022-08-22T08:00:15.029Z,101132.00
2022-08-22T08:02:52.402Z,101130.60
2022-08-22T08:05:24.323Z,101132.60
2022-08-22T08:07:56.398Z,101134.00
2022-08-22T08:10:39.840Z,101135.00
2022-08-22T08:13:21.835Z,101129.00
2022-08-22T08:15:51.750Z,101130.80
2022-08-22T08:18:26.096Z,101129.80
2022-08-22T08:21:04.147Z,101124.60
2022-08-22T08:23:40.693Z,101121.60
2022-08-22T08:26:21.314Z,101121.80
2022-08-22T08:28:54.097Z,101126.00
2022-08-22T08:31:23.604Z,101124.40
2022-08-22T08:34:09.084Z,101128.00
2022-08-22T08:37:15.557Z,101122.00
2022-08-22T08:39:51.061Z,101118.60
2022-08-22T08:43:31.685Z,101112.40
2022-08-22T08:46:53.093Z,101111.80
2022-08-22T08:49:42.148Z,101109.80
2022-08-22T08:52:24.408Z,101110.00
2022-08-22T08:55:10.515Z,101112.00
2022-08-22T08:58:27.383Z,101111.20
2022-08-22T09:01:11.622Z,101114.00
2022-08-22T09:04:17.607Z,101114.80
2022-08-22T09:07:01.684Z,101116.20
2022-08-22T09:10:12.314Z,101118.60
2022-08-22T09:13:12.323Z,101114.80
2022-08-22T09:16:04.420Z,101120.20
2022-08-22T09:19:17.499Z,101119.40
2022-08-22T09:22:50.230Z,101119.80
2022-08-22T09:25:38.656Z,101121.00
2022-08-22T09:28:20.637Z,101125.00
2022-08-22T09:31:16.842Z,101123.60
2022-08-22T09:34:33.068Z,101120.80
2022-08-22T09:37:25.718Z,101124.20
2022-08-22T09:40:29.518Z,101127.20
2022-08-22T09:43:24.744Z,101125.20
2022-08-22T09:46:29.434Z,101127.00
2022-08-22T09:49:25.905Z,101132.40
2022-08-22T09:52:47.534Z,101139.00
2022-08-22T09:55:50.735Z,101144.60
2022-08-22T09:58:27.938Z,101142.20
2022-08-22T10:01:23.985Z,101146.20
2022-08-22T10:04:31.037Z,101146.00
2022-08-22T10:07:20.711Z,101153.40
2022-08-22T10:10:17.558Z,101142.80
2022-08-22T10:13:30.895Z,101146.60
2022-08-22T10:16:43.002Z,101145.60
2022-08-22T10:19:44.661Z,101148.60
2022-08-22T10:22:17.937Z,101150.60
2022-08-22T10:25:25.106Z,101151.60
2022-08-22T10:28:10.763Z,101154.40
2022-08-22T10:30:57.337Z,101155.20
2022-08-22T10:33:41.585Z,101153.80
2022-08-22T10:36:27.065Z,101154.40
2022-08-22T10:38:58.348Z,101156.40
2022-08-22T10:41:55.466Z,101159.40
2022-08-22T10:44:35.110Z,101154.80
2022-08-22T10:47:52.952Z,101157.80
2022-08-22T10:50:36.994Z,101156.40
2022-08-22T10:53:35.448Z,101153.20
2022-08-22T10:56:43.909Z,101155.20
2022-08-22T10:59:39.524Z,101151.80
2022-08-22T11:02:27.865Z,101148.40
2022-08-22T11:05:30.826Z,101149.60
2022-08-22T11:08:29.752Z,101146.80
2022-08-22T11:11:35.848Z,101149.00
2022-08-22T11:14:30.308Z,101148.60
2022-08-22T11:17:35.586Z,101143.20
2022-08-22T11:20:34.813Z,101147.20
2022-08-22T11:24:00.456Z,101147.60
2022-08-22T11:26:47.328Z,101150.00
2022-08-22T11:29:34.773Z,101146.40
2022-08-22T11:32:29.925Z,101144.60
2022-08-22T11:35:12.484Z,101146.20
2022-08-22T11:38:04.879Z,101145.60
2022-08-22T11:40:56.402Z,101147.60
2022-08-22T11:43:30.733Z,101147.60
2022-08-22T11:46:20.265Z,101144.20
2022-08-22T11:49:16.736Z,101149.40
2022-08-22T11:52:11.535Z,101147.20
2022-08-22T11:54:59.212Z,101145.40
2022-08-22T11:58:15.477Z,101137.40
2022-08-22T12:01:42.281Z,101137.40
2022-08-22T12:04:33.893Z,101139.80
2022-08-22T12:07:18.617Z,101139.20
2022-08-22T12:10:04.599Z,101140.20
2022-08-22T12:12:48.646Z,101141.80
2022-08-22T12:15:29.729Z,101138.20
2022-08-22T12:18:44.081Z,101137.80
2022-08-22T12:21:42.937Z,101137.80
2022-08-22T12:24:48.118Z,101142.20
2022-08-22T12:27:49.720Z,101139.80
2022-08-22T12:30:30.651Z,101136.80
2022-08-22T12:33:23.607Z,101133.80
2022-08-22T12:37:11.452Z,101134.60
2022-08-22T12:40:01.990Z,101134.20
2022-08-22T12:42:46.172Z,101134.00
2022-08-22T12:45:21.235Z,101130.60
2022-08-22T12:48:18.492Z,101128.40
2022-08-22T12:51:22.919Z,101123.00
2022-08-22T12:54:33.997Z,101117.40
2022-08-22T12:57:23.980Z,101113.00
2022-08-22T13:00:27.048Z,101110.60
2022-08-22T13:03:05.390Z,101112.80
2022-08-22T13:05:40.581Z,101107.00
2022-08-22T13:08:20.247Z,101109.60
2022-08-22T13:11:01.664Z,101108.20
2022-08-22T13:13:56.679Z,101112.20
2022-08-22T13:16:40.374Z,101108.60
2022-08-22T13:19:32.417Z,101108.60
2022-08-22T13:22:09.702Z,101107.20
2022-08-22T13:25:06.334Z,101103.40
2022-08-22T13:27:51.359Z,101106.60
2022-08-22T13:30:26.850Z,101106.60
2022-08-22T13:33:04.835Z,101108.20
2022-08-22T13:35:54.767Z,101105.80
2022-08-22T13:39:02.761Z,101111.00
2022-08-22T13:41:44.398Z,101114.40
2022-08-22T13:44:21.252Z,101111.60
2022-08-22T13:47:13.171Z,101109.80
2022-08-22T13:49:45.507Z,101112.60
2022-08-22T13:52:52.319Z,101114.40
2022-08-22T13:55:49.064Z,101111.80
2022-08-22T13:58:42.447Z,101111.80
2022-08-22T14:02:01.079Z,101111.60
2022-08-22T14:04:40.032Z,101111.40
2022-08-22T14:07:09.231Z,101112.00
2022-08-22T14:10:14.980Z,101113.00
2022-08-22T14:13:10.094Z,101114.00
2022-08-22T14:15:45.836Z,101110.80
2022-08-22T14:18:36.753Z,101111.80
2022-08-22T14:21:41.487Z,101111.00
2022-08-22T14:24:25.878Z,101111.60
2022-08-22T14:27:10.021Z,101105.80
2022-08-22T14:29:58.644Z,101110.20
2022-08-22T14:32:30.894Z,101109.60
2022-08-22T14:35:35.325Z,101109.80
2022-08-22T14:38:39.826Z,101113.20
2022-08-22T14:41:19.790Z,101112.40
2022-08-22T14:44:12.364Z,101108.00
2022-08-22T14:46:56.817Z,101106.00
2022-08-22T14:49:33.599Z,101104.60
2022-08-22T14:52:19.954Z,101103.20
2022-08-22T14:54:51.053Z,101098.40
2022-08-22T14:57:21.162Z,101102.40
2022-08-22T14:59:52.564Z,101105.40
2022-08-22T15:02:31.437Z,101103.40
2022-08-22T15:05:13.780Z,101105.60
2022-08-22T15:07:43.088Z,101109.20
2022-08-22T15:10:21.682Z,101102.40
2022-08-22T15:12:55.513Z,101098.20
2022-08-22T15:15:33.377Z,101096.80
2022-08-22T15:18:38.929Z,101095.80
2022-08-22T15:21:24.461Z,101096.60
2022-08-22T15:23:59.949Z,101098.40
2022-08-22T15:26:50.128Z,101098.00
2022-08-22T15:29:26.638Z,101096.80
2022-08-22T15:32:03.290Z,101098.00
2022-08-22T15:35:06.489Z,101097.60
2022-08-22T15:37:56.270Z,101104.20
2022-08-22T15:40:45.742Z,101097.80
2022-08-22T15:43:22.463Z,101103.00
2022-08-22T15:46:18.089Z,101101.20
2022-08-22T15:49:20.513Z,101098.80
2022-08-22T15:52:01.282Z,101098.00
2022-08-22T15:54:54.243Z,101094.60
2022-08-22T15:57:35.196Z,101098.20
2022-08-22T16:00:28.097Z,101088.00
2022-08-22T16:03:25.735Z,101085.00
2022-08-22T16:06:12.277Z,101089.40
2022-08-22T16:08:55.537Z,101085.80
2022-08-22T16:11:35.508Z,101088.80
2022-08-22T16:14:46.030Z,101087.60
2022-08-22T16:17:29.829Z,101094.20
2022-08-22T16:20:12.031Z,101099.80
2022-08-22T16:22:58.881Z,101090.80
2022-08-22T16:25:46.322Z,101100.00
2022-08-22T16:28:58.312Z,101096.20
2022-08-22T16:31:46.551Z,101098.00
2022-08-22T16:34:18.590Z,101096.60
2022-08-22T16:37:09.801Z,101094.20
2022-08-22T16:40:05.467Z,101100.20
2022-08-22T16:42:49.363Z,101098.00
2022-08-22T16:45:39.502Z,101105.00
2022-08-22T16:48:40.454Z,101105.00
2022-08-22T16:51:22.298Z,101107.00
2022-08-22T16:54:09.921Z,101107.00
2022-08-22T16:58:05.268Z,101109.20
2022-08-22T17:01:16.024Z,101111.40
2022-08-22T17:04:04.608Z,101116.00
2022-08-22T17:07:05.417Z,101118.40
2022-08-22T17:10:25.294Z,101122.60
2022-08-22T17:13:27.774Z,101123.60
2022-08-22T17:16:43.872Z,101128.60
2022-08-22T17:19:39.145Z,101127.20
2022-08-22T17:22:54.463Z,101128.40
2022-08-22T17:25:54.688Z,101128.60
2022-08-22T17:28:41.663Z,101124.20
2022-08-22T17:31:45.721Z,101123.00
2022-08-22T17:34:58.752Z,101129.00
2022-08-22T17:37:52.708Z,101131.20
2022-08-22T17:40:54.630Z,101133.20
2022-08-22T17:43:55.740Z,101129.60
2022-08-22T17:47:20.038Z,101132.60
2022-08-22T17:50:06.539Z,101136.80
2022-08-22T17:52:45.455Z,101144.00
2022-08-22T17:56:00.335Z,101148.60
2022-08-22T17:58:43.505Z,101150.40
2022-08-22T18:01:46.539Z,101152.00
2022-08-22T18:04:48.314Z,101149.80
2022-08-22T18:07:32.877Z,101158.00
2022-08-22T18:10:40.180Z,101162.80
2022-08-22T18:13:42.521Z,101158.20
2022-08-22T18:16:42.871Z,101164.40
2022-08-22T18:19:42.586Z,101168.60
2022-08-22T18:22:39.337Z,101171.40
2022-08-22T18:25:20.101Z,101167.20
2022-08-22T18:27:51.758Z,101174.80
2022-08-22T18:30:30.069Z,101174.40
2022-08-22T18:33:19.237Z,101177.60
2022-08-22T18:36:20.387Z,101177.80
2022-08-22T18:39:08.241Z,101180.00
2022-08-22T18:41:47.842Z,101186.80
2022-08-22T18:44:26.274Z,101184.20
2022-08-22T18:47:00.189Z,101187.20
2022-08-22T18:49:31.743Z,101191.20
2022-08-22T18:52:07.496Z,101191.40
2022-08-22T18:55:33.118Z,101189.80
2022-08-22T18:58:38.576Z,101192.20
2022-08-22T19:01:44.631Z,101190.80
2022-08-22T19:04:41.477Z,101189.60
2022-08-22T19:07:25.658Z,101189.80
2022-08-22T19:10:27.092Z,101185.40
2022-08-22T19:13:19.322Z,101179.80
2022-08-22T19:16:12.891Z,101179.20
2022-08-22T19:18:44.856Z,101176.00
2022-08-22T19:21:37.895Z,101170.40
2022-08-22T19:24:36.809Z,101176.40
2022-08-22T19:27:12.664Z,101176.20
2022-08-22T19:29:42.068Z,101180.40
2022-08-22T19:32:45.063Z,101180.80
2022-08-22T19:35:40.882Z,101178.40
2022-08-22T19:38:10.867Z,101180.60
2022-08-22T19:40:45.385Z,101172.40
2022-08-22T19:43:41.247Z,101162.80
2022-08-22T19:46:13.646Z,101163.60
2022-08-22T19:48:53.060Z,101166.80
2022-08-22T19:51:23.745Z,101178.00
2022-08-22T19:54:02.619Z,101179.40
2022-08-22T19:56:50.867Z,101177.80
2022-08-22T20:00:18.535Z,101180.60
2022-08-22T20:02:56.758Z,101189.00
2022-08-22T20:06:05.228Z,101185.20
2022-08-22T20:08:57.200Z,101176.80
2022-08-22T20:11:44.317Z,101177.60
2022-08-22T20:14:30.472Z,101167.80
2022-08-22T20:16:59.713Z,101167.00
2022-08-22T20:22:39.583Z,101163.60
2022-08-22T20:25:44.226Z,101159.20
2022-08-22T20:28:47.715Z,101151.00
2022-08-22T20:31:27.890Z,101144.40
2022-08-22T20:34:04.392Z,101145.80
2022-08-22T20:36:33.338Z,101144.80
2022-08-22T20:39:18.815Z,101138.00
2022-08-22T20:41:56.450Z,101140.40
2022-08-22T20:44:40.273Z,101142.60
2022-08-22T20:47:24.285Z,101137.60
2022-08-22T20:49:57.886Z,101133.80
2022-08-22T20:52:33.308Z,101139.00
2022-08-22T20:55:21.491Z,101133.40
2022-08-22T20:58:19.464Z,101129.80
2022-08-22T21:00:52.763Z,101134.80
2022-08-22T21:03:42.950Z,101135.80
2022-08-22T21:06:20.273Z,101137.20
2022-08-22T21:09:12.990Z,101141.00
2022-08-22T21:11:51.284Z,101140.40
2022-08-22T21:14:26.900Z,101142.00
2022-08-22T21:16:55.638Z,101140.00
2022-08-22T21:19:29.906Z,101134.60
2022-08-22T21:22:17.650Z,101132.60
2022-08-22T21:24:46.593Z,101134.40
2022-08-22T21:27:25.621Z,101137.60
2022-08-22T21:29:55.126Z,101129.80
2022-08-22T21:32:28.112Z,101124.80
2022-08-22T21:34:56.973Z,101124.20
2022-08-22T21:37:40.732Z,101120.00
2022-08-22T21:40:28.968Z,101119.00
2022-08-22T21:43:30.053Z,101117.00
2022-08-22T21:45:58.822Z,101123.80
2022-08-22T21:48:59.462Z,101125.60
2022-08-22T21:51:46.637Z,101121.40
2022-08-22T21:54:30.725Z,101124.60
2022-08-22T21:57:09.137Z,101127.20
2022-08-22T21:59:51.955Z,101132.00
2022-08-22T22:02:42.169Z,101132.00
2022-08-22T22:05:18.517Z,101134.40
2022-08-22T22:07:48.184Z,101133.20
2022-08-22T22:10:20.266Z,101135.20
2022-08-22T22:12:53.636Z,101134.40
2022-08-22T22:15:26.929Z,101131.80
2022-08-22T22:17:55.877Z,101130.40
2022-08-22T22:20:27.793Z,101129.00
2022-08-22T22:22:57.037Z,101132.40
2022-08-22T22:25:39.042Z,101119.40
2022-08-22T22:28:25.319Z,101117.80
2022-08-22T22:30:54.124Z,101118.20
2022-08-22T22:33:34.074Z,101115.20
2022-08-22T22:36:11.191Z,101113.00
2022-08-22T22:38:41.178Z,101111.20
2022-08-22T22:41:09.994Z,101118.80
2022-08-22T22:43:38.965Z,101120.40
2022-08-22T22:46:07.646Z,101121.80
2022-08-22T22:48:36.336Z,101123.00
2022-08-22T22:51:13.073Z,101115.40
2022-08-22T22:53:43.655Z,101111.60
2022-08-22T22:56:21.732Z,101108.00
2022-08-22T22:58:58.921Z,101107.20
2022-08-22T23:01:29.876Z,101107.00
2022-08-22T23:04:03.274Z,101097.80
2022-08-22T23:06:35.353Z,101101.00
2022-08-22T23:09:04.639Z,101099.20
2022-08-22T23:11:33.543Z,101092.80
2022-08-22T23:14:03.018Z,101097.40
2022-08-22T23:16:36.995Z,101099.60
2022-08-22T23:19:15.088Z,101094.00
2022-08-22T23:21:45.894Z,101096.80
2022-08-22T23:24:15.776Z,101097.40
2022-08-22T23:26:44.799Z,101104.40
2022-08-22T23:29:14.081Z,101103.80
2022-08-22T23:32:04.649Z,101107.20
2022-08-22T23:34:37.477Z,101108.40
2022-08-22T23:37:08.423Z,101109.20
2022-08-22T23:39:38.734Z,101102.00
2022-08-22T23:42:08.983Z,101097.60
2022-08-22T23:44:40.344Z,101097.80
2022-08-22T23:47:11.231Z,101096.60
2022-08-22T23:49:41.920Z,101088.60
2022-08-22T23:52:12.897Z,101085.60
2022-08-22T23:54:42.235Z,101088.80
2022-08-22T23:57:11.638Z,101086.00
2022-08-22T23:59:47.920Z,101082.00
